Cedar Valley, Utah
Current Conditions -  °F | °C
As of 3:57 PM on Friday 31 Oct 2014 (Local Time) from KPVU Reporting Station
Broken Clouds Broken Clouds  
Wind Chill: 73°   Ceiling: 16000
Heat Index: 73°   Visibility: 15mi
Dew Point: 25°   Wind: 0mph
Humidity: 16%   Direction: NA
Pressure: 29.9"   Gusts: NA
Location:  40.29°N, 112.07°W
Report Text: KPVU 312157Z 00000KT 15SM BKN160 23/M04 A2990
Loading
Personal Weather Stations






























Interactive Weather Map
Tropical Storm Tracking
New forecast layout! Learn more

10-Day Weather Forecast

Advertisements
Track Severe Weather on mobile